Strona główna
METAR-TAF:

METAR-TAF

Lotnisko :

Port lotniczy Arad

Arad, Rumunia

Szerokość geograficzna: 46-12N, Długość geograficzna: 021-24E, wysokość: 117 m

Aktualna obserwacja pogody

Raport powstał 18 minut temu, godzina 22:00 UTC
Wiatr 10 kt od południe
Temperatura 18°C
Wilgotność 68%
Ciśnienie 1003 hPa
Widzialność 10 km lub więcej
Brak chmur poniżej 1500 m i brak chmur cumulonimbus

METAR: LRAR 042200Z 19010KT CAVOK 18/12 Q1003

czas: 01:18 (22:18 UTC)

Prognoza

Raport powstał 2 godziny i 18 minut temu, godzina 20:00 UTC
Prognoza ważna od 04 godzina 21 UTC do 05 godzina 06 UTC
Wiatr 8 kt od południowo-południowy wschód
Widzialność 10 km lub więcej
Brak chmur poniżej 1500 m i brak chmur cumulonimbus
Stopniowe zmiany
od 05 godzina 04 UTC do 05 godzina 06 UTC
Wiatr 18 kt od południe

TAF: LRAR 042000Z 0421/0506 15008KT CAVOK BECMG 0504/0506 18018KT

Obserwacja i prognoza pogody dla ponad 4000 lotnisk (raport METAR i TAF).

Dostępne stacje oznaczono żółtymi i czerwonymi punktami na mapie.

Najedź kursorem aby zobaczyć nazwę stacji.

Kliknij aby zobaczyć obserwacje i prognozy pogody.

Aby zmienić mapę: kliknij na zielony przycisk z czarnym krzyżykiem, aby powiększyć; na zielony przycisk z myślnikiem, aby pomniejszyć; na zielone strzałki, aby przejść do map sąsiednich.


METAR-TAF: